Key West International Airport
KEYW : now visible

Airfield :











YOU CAN JOIN US ON...

 
LOGIN :

Register | Disclaimer

   EN    FR    IT 

 









Legend :    VFR   Marginal VFR   IFR   Intensive IFR   Very Intensive IFR
Visi :
Ceiling :
>= 8 km
>= 3000ft
5 to 8 km
1000 to 3000 ft
1500m to 5 km
500 to 1000 ft
800 to 1500m
200 to 500 ft
< 800m
< 200 ft
Symbols :   Thunderstorms  Fog  Heavy snow  Heavy precipitations  Wind > 20 kt






- Airport Elevation : 3 ft
- IATA code : EYW


KEYW - Key West International

CURRENT METAR :
  • 080753Z AUTO 03004KT 10SM CLR 21/18 A3011 RMK AO2 SLP194 T02110183

EXPIRED METARs :
  • 080653Z AUTO 03004KT 10SM CLR 21/18 A3012 RMK AO2 SLP199 T02110183
  • 080553Z AUTO 04005KT 10SM CLR 22/18 A3013 RMK AO2 SLP201 T02170183 10222 20211 58004

TAF KEYW
Valid from the 08 at 06:00 until the 09 at 06:00 UTC


080538Z 0806/0906 04005KT P6SM FEW025 SCT100
FM081400 08008KT P6SM SCT030



MET'MAP, your aeronautical weather chart ! - Copyright ORBIFLY December 2007 - Disclaimer

ORBIFLY MET'MAP TEAM :

Programming & Development : Alexandra Zaïnal
Concept & original design : Baudouin d'Aumeries
Assistance for programming : Marc-Olivier Méhu
Technical & hardware support : Manuel Goepfert

Contact : metmap@orbifly.com




SOURCES & CREDITS :

   NOAA       Earth
Advisory